OAL210 LATI-LGAV
Flight info
| Callsign | OAL210 |
|---|---|
| Flight time | 0h 58m |
| Altitude | 35000 |
| Route | ELBAK DCT ADDER DCT DIMIS UL604 YNN DCT IXONI UL53 PIKAD |
| Aircraft | B738/M-SDE2E3FGHIRWXY/LB1 |
Departure
| Time | 2026-05-06 13:43 |
|---|---|
| Airport | Tirana International Airport Mother Teresa (LATI) |
Arrival
| Time | 2026-05-06 14:42 |
|---|---|
| Airport | Athens Eleftherios Venizelos International Airport (LGAV) |
| Time | Latitude | Longitude | Altitude | Speed | Heading |
|---|---|---|---|---|---|
| 2026-05-06 13:34 | 41.42027 | 19.71512 | 117 ft | 0 kts | 276° |
| 2026-05-06 13:38 | 41.42027 | 19.71511 | 117 ft | 1 kts | 276° |
| 2026-05-06 13:38 | 41.42044 | 19.71505 | 116 ft | 6 kts | 352° |
| 2026-05-06 13:38 | 41.42068 | 19.71530 | 117 ft | 5 kts | 105° |
| 2026-05-06 13:39 | 41.42014 | 19.71570 | 115 ft | 13 kts | 168° |
| 2026-05-06 13:39 | 41.41903 | 19.71586 | 115 ft | 19 kts | 174° |
| 2026-05-06 13:39 | 41.41758 | 19.71605 | 116 ft | 22 kts | 174° |
| 2026-05-06 13:39 | 41.41603 | 19.71626 | 120 ft | 23 kts | 174° |
| 2026-05-06 13:40 | 41.41441 | 19.71648 | 120 ft | 23 kts | 174° |
| 2026-05-06 13:40 | 41.41284 | 19.71668 | 118 ft | 22 kts | 174° |
| 2026-05-06 13:40 | 41.41132 | 19.71688 | 121 ft | 22 kts | 174° |
| 2026-05-06 13:40 | 41.40981 | 19.71710 | 123 ft | 22 kts | 171° |
| 2026-05-06 13:41 | 41.40845 | 19.71739 | 124 ft | 20 kts | 171° |
| 2026-05-06 13:41 | 41.40708 | 19.71766 | 122 ft | 20 kts | 174° |
| 2026-05-06 13:41 | 41.40570 | 19.71783 | 125 ft | 21 kts | 175° |
| 2026-05-06 13:41 | 41.40416 | 19.71813 | 126 ft | 21 kts | 160° |
| 2026-05-06 13:42 | 41.40295 | 19.71921 | 127 ft | 22 kts | 140° |
| 2026-05-06 13:42 | 41.40249 | 19.72128 | 126 ft | 27 kts | 83° |
| 2026-05-06 13:42 | 41.40473 | 19.72192 | 126 ft | 71 kts | 354° |
| 2026-05-06 13:42 | 41.41246 | 19.72084 | 122 ft | 150 kts | 354° |
| 2026-05-06 13:43 | 41.42490 | 19.71943 | 455 ft | 194 kts | 353° |
| 2026-05-06 13:43 | 41.43738 | 19.71790 | 1945 ft | 168 kts | 354° |
| 2026-05-06 13:43 | 41.44879 | 19.71629 | 2944 ft | 169 kts | 354° |
| 2026-05-06 13:43 | 41.46087 | 19.71455 | 3590 ft | 183 kts | 354° |
| 2026-05-06 13:44 | 41.47471 | 19.71265 | 3932 ft | 217 kts | 353° |
| 2026-05-06 13:44 | 41.49070 | 19.71043 | 4160 ft | 245 kts | 354° |
| 2026-05-06 13:44 | 41.50807 | 19.70808 | 4586 ft | 263 kts | 353° |
| 2026-05-06 13:44 | 41.52707 | 19.70555 | 5017 ft | 282 kts | 353° |
| 2026-05-06 13:45 | 41.54675 | 19.70295 | 5975 ft | 284 kts | 353° |
| 2026-05-06 13:45 | 41.58599 | 19.69781 | 7938 ft | 286 kts | 352° |
| 2026-05-06 13:45 | 41.60585 | 19.69472 | 8860 ft | 287 kts | 345° |
| 2026-05-06 13:46 | 41.62348 | 19.68291 | 9741 ft | 285 kts | 315° |
| 2026-05-06 13:46 | 41.63501 | 19.66158 | 10535 ft | 287 kts | 291° |
| 2026-05-06 13:46 | 41.63911 | 19.63469 | 10791 ft | 310 kts | 268° |
| 2026-05-06 13:46 | 41.63469 | 19.60597 | 10992 ft | 333 kts | 248° |
| 2026-05-06 13:47 | 41.62209 | 19.57885 | 11291 ft | 353 kts | 228° |
| 2026-05-06 13:47 | 41.60230 | 19.55883 | 11890 ft | 363 kts | 206° |
| 2026-05-06 13:47 | 41.57765 | 19.55132 | 12698 ft | 370 kts | 182° |
| 2026-05-06 13:47 | 41.55185 | 19.55469 | 13524 ft | 374 kts | 172° |
| 2026-05-06 13:48 | 41.52608 | 19.56132 | 14176 ft | 381 kts | 170° |
| 2026-05-06 13:48 | 41.49983 | 19.56830 | 14787 ft | 387 kts | 171° |
| 2026-05-06 13:48 | 41.47355 | 19.57458 | 15458 ft | 390 kts | 172° |
| 2026-05-06 13:48 | 41.44659 | 19.58023 | 16109 ft | 394 kts | 174° |
| 2026-05-06 13:49 | 41.41926 | 19.58542 | 16764 ft | 398 kts | 174° |
| 2026-05-06 13:49 | 41.39166 | 19.59039 | 17407 ft | 402 kts | 175° |
| 2026-05-06 13:49 | 41.36366 | 19.59531 | 18025 ft | 407 kts | 175° |
| 2026-05-06 13:49 | 41.33544 | 19.60028 | 18590 ft | 411 kts | 175° |
| 2026-05-06 13:50 | 41.30728 | 19.60525 | 19111 ft | 415 kts | 175° |
| 2026-05-06 13:50 | 41.27880 | 19.61377 | 19635 ft | 424 kts | 160° |
| 2026-05-06 13:50 | 41.25517 | 19.63247 | 20110 ft | 433 kts | 143° |
| 2026-05-06 13:50 | 41.23225 | 19.65871 | 20654 ft | 437 kts | 141° |
| 2026-05-06 13:51 | 41.20927 | 19.68571 | 21155 ft | 442 kts | 141° |
| 2026-05-06 13:51 | 41.18612 | 19.71294 | 21625 ft | 446 kts | 141° |
| 2026-05-06 13:51 | 41.16294 | 19.74002 | 22087 ft | 451 kts | 141° |
| 2026-05-06 13:51 | 41.13924 | 19.76746 | 22580 ft | 454 kts | 142° |
| 2026-05-06 13:52 | 41.11520 | 19.79509 | 23036 ft | 458 kts | 142° |
| 2026-05-06 13:52 | 41.09094 | 19.82285 | 23412 ft | 463 kts | 142° |
| 2026-05-06 13:52 | 41.06634 | 19.85092 | 23777 ft | 468 kts | 142° |
| 2026-05-06 13:52 | 41.04161 | 19.87912 | 24205 ft | 469 kts | 142° |
| 2026-05-06 13:53 | 41.01680 | 19.90741 | 24659 ft | 471 kts | 142° |
| 2026-05-06 13:53 | 40.99189 | 19.93577 | 25066 ft | 473 kts | 142° |
| 2026-05-06 13:53 | 40.96689 | 19.96422 | 25451 ft | 475 kts | 142° |
| 2026-05-06 13:53 | 40.94176 | 19.99279 | 25851 ft | 477 kts | 142° |
| 2026-05-06 13:54 | 40.91651 | 20.02146 | 26233 ft | 479 kts | 142° |
| 2026-05-06 13:54 | 40.89145 | 20.04988 | 26608 ft | 481 kts | 142° |
| 2026-05-06 13:54 | 40.86577 | 20.07861 | 26935 ft | 483 kts | 144° |
| 2026-05-06 13:54 | 40.83751 | 20.10224 | 27282 ft | 480 kts | 155° |
| 2026-05-06 13:55 | 40.80744 | 20.12178 | 27620 ft | 481 kts | 158° |
| 2026-05-06 13:55 | 40.77742 | 20.14034 | 27950 ft | 483 kts | 158° |
| 2026-05-06 13:55 | 40.74695 | 20.15925 | 28259 ft | 486 kts | 157° |
| 2026-05-06 13:55 | 40.71639 | 20.17865 | 28578 ft | 487 kts | 156° |
| 2026-05-06 13:56 | 40.68591 | 20.19843 | 28920 ft | 488 kts | 156° |
| 2026-05-06 13:56 | 40.65553 | 20.21842 | 29336 ft | 487 kts | 156° |
| 2026-05-06 13:56 | 40.62527 | 20.23839 | 29804 ft | 485 kts | 156° |
| 2026-05-06 13:56 | 40.59512 | 20.25830 | 30259 ft | 483 kts | 156° |
| 2026-05-06 13:57 | 40.56495 | 20.27815 | 30497 ft | 483 kts | 156° |
| 2026-05-06 13:57 | 40.53521 | 20.29765 | 30812 ft | 484 kts | 157° |
| 2026-05-06 13:57 | 40.50503 | 20.31737 | 31180 ft | 482 kts | 157° |
| 2026-05-06 13:57 | 40.47492 | 20.33687 | 31578 ft | 480 kts | 157° |
| 2026-05-06 13:58 | 40.44493 | 20.35621 | 31899 ft | 480 kts | 157° |
| 2026-05-06 13:58 | 40.41493 | 20.37552 | 32278 ft | 480 kts | 157° |
| 2026-05-06 13:58 | 40.38503 | 20.39478 | 32691 ft | 478 kts | 157° |
| 2026-05-06 13:58 | 40.35520 | 20.41399 | 33026 ft | 478 kts | 157° |
| 2026-05-06 13:59 | 40.32567 | 20.43300 | 33342 ft | 478 kts | 158° |
| 2026-05-06 13:59 | 40.29582 | 20.45221 | 33685 ft | 477 kts | 158° |
| 2026-05-06 13:59 | 40.26605 | 20.47135 | 34030 ft | 476 kts | 158° |
| 2026-05-06 13:59 | 40.23625 | 20.49048 | 34328 ft | 476 kts | 157° |
| 2026-05-06 14:00 | 40.20650 | 20.50956 | 34614 ft | 476 kts | 157° |
| 2026-05-06 14:00 | 40.17675 | 20.52862 | 34923 ft | 475 kts | 157° |
| 2026-05-06 14:00 | 40.14704 | 20.54764 | 35071 ft | 477 kts | 157° |
| 2026-05-06 14:00 | 40.11714 | 20.56677 | 35073 ft | 479 kts | 157° |
| 2026-05-06 14:01 | 40.05762 | 20.60450 | 35076 ft | 474 kts | 158° |
| 2026-05-06 14:01 | 39.99835 | 20.64073 | 35086 ft | 471 kts | 159° |
| 2026-05-06 14:02 | 39.93887 | 20.67664 | 35094 ft | 471 kts | 159° |
| 2026-05-06 14:02 | 39.87924 | 20.71272 | 35090 ft | 473 kts | 159° |
| 2026-05-06 14:03 | 39.81979 | 20.74870 | 35102 ft | 474 kts | 158° |
| 2026-05-06 14:03 | 39.75999 | 20.78484 | 35105 ft | 475 kts | 159° |
| 2026-05-06 14:04 | 39.70028 | 20.82234 | 35094 ft | 476 kts | 152° |
| 2026-05-06 14:04 | 39.64732 | 20.87368 | 35110 ft | 479 kts | 143° |
| 2026-05-06 14:05 | 39.59566 | 20.92905 | 35095 ft | 480 kts | 142° |
| 2026-05-06 14:05 | 39.54440 | 20.98371 | 35098 ft | 480 kts | 144° |
| 2026-05-06 14:06 | 39.49304 | 21.03677 | 35099 ft | 481 kts | 144° |
| 2026-05-06 14:06 | 39.44061 | 21.09083 | 35108 ft | 481 kts | 144° |
| 2026-05-06 14:07 | 39.38791 | 21.14439 | 35105 ft | 482 kts | 144° |
| 2026-05-06 14:07 | 39.33557 | 21.19881 | 35095 ft | 482 kts | 144° |
| 2026-05-06 14:08 | 39.28357 | 21.25274 | 35095 ft | 482 kts | 144° |
| 2026-05-06 14:08 | 39.23116 | 21.30677 | 35097 ft | 482 kts | 144° |
| 2026-05-06 14:09 | 39.17861 | 21.36067 | 35085 ft | 481 kts | 144° |
| 2026-05-06 14:09 | 39.12646 | 21.41405 | 35097 ft | 481 kts | 144° |
| 2026-05-06 14:10 | 39.07406 | 21.46761 | 35089 ft | 480 kts | 144° |
| 2026-05-06 14:10 | 39.02171 | 21.52101 | 35093 ft | 479 kts | 144° |
| 2026-05-06 14:11 | 38.96947 | 21.57420 | 35089 ft | 479 kts | 144° |
| 2026-05-06 14:11 | 38.91758 | 21.62692 | 35101 ft | 478 kts | 144° |
| 2026-05-06 14:12 | 38.86537 | 21.67985 | 35092 ft | 478 kts | 144° |
| 2026-05-06 14:12 | 38.81316 | 21.73269 | 35079 ft | 477 kts | 144° |
| 2026-05-06 14:13 | 38.76089 | 21.78551 | 35088 ft | 478 kts | 144° |
| 2026-05-06 14:13 | 38.70862 | 21.83823 | 35089 ft | 478 kts | 144° |
| 2026-05-06 14:14 | 38.65663 | 21.89054 | 35088 ft | 479 kts | 144° |
| 2026-05-06 14:14 | 38.60418 | 21.94323 | 35088 ft | 480 kts | 144° |
| 2026-05-06 14:15 | 38.55164 | 21.99590 | 35089 ft | 480 kts | 144° |
| 2026-05-06 14:15 | 38.50008 | 22.04751 | 35084 ft | 481 kts | 144° |
| 2026-05-06 14:16 | 38.44735 | 22.10017 | 35072 ft | 481 kts | 144° |
| 2026-05-06 14:16 | 38.39461 | 22.15279 | 35085 ft | 482 kts | 144° |
| 2026-05-06 14:17 | 38.34168 | 22.20547 | 35074 ft | 483 kts | 144° |
| 2026-05-06 14:17 | 38.29448 | 22.26657 | 35062 ft | 489 kts | 127° |
| 2026-05-06 14:18 | 38.25655 | 22.33776 | 35070 ft | 489 kts | 125° |
| 2026-05-06 14:18 | 38.21849 | 22.40949 | 35063 ft | 489 kts | 126° |
| 2026-05-06 14:19 | 38.17996 | 22.48063 | 35068 ft | 488 kts | 126° |
| 2026-05-06 14:19 | 38.14117 | 22.55158 | 35065 ft | 488 kts | 126° |
| 2026-05-06 14:20 | 38.10241 | 22.62242 | 35067 ft | 488 kts | 126° |
| 2026-05-06 14:20 | 38.06359 | 22.69325 | 34643 ft | 493 kts | 126° |
| 2026-05-06 14:21 | 38.04397 | 22.72901 | 34021 ft | 492 kts | 126° |
| 2026-05-06 14:21 | 38.02469 | 22.76418 | 33280 ft | 492 kts | 126° |
| 2026-05-06 14:21 | 38.00515 | 22.79985 | 32557 ft | 492 kts | 126° |
| 2026-05-06 14:21 | 37.98571 | 22.83531 | 31811 ft | 493 kts | 126° |
| 2026-05-06 14:22 | 37.96613 | 22.87097 | 31063 ft | 493 kts | 125° |
| 2026-05-06 14:22 | 37.94640 | 22.90673 | 30277 ft | 494 kts | 127° |
| 2026-05-06 14:22 | 37.92311 | 22.93874 | 29349 ft | 494 kts | 143° |
| 2026-05-06 14:22 | 37.89409 | 22.96127 | 28645 ft | 487 kts | 155° |
| 2026-05-06 14:23 | 37.86356 | 22.97999 | 27727 ft | 488 kts | 156° |
| 2026-05-06 14:23 | 37.84320 | 22.99203 | 27165 ft | 485 kts | 156° |
| 2026-05-06 14:23 | 37.81419 | 23.00917 | 26445 ft | 478 kts | 156° |
| 2026-05-06 14:23 | 37.78484 | 23.02684 | 25415 ft | 481 kts | 155° |
| 2026-05-06 14:24 | 37.75518 | 23.04510 | 24857 ft | 471 kts | 155° |
| 2026-05-06 14:24 | 37.72602 | 23.06326 | 24327 ft | 462 kts | 154° |
| 2026-05-06 14:24 | 37.69747 | 23.08106 | 23841 ft | 453 kts | 154° |
| 2026-05-06 14:24 | 37.66952 | 23.09863 | 23309 ft | 445 kts | 151° |
| 2026-05-06 14:25 | 37.64536 | 23.12228 | 22793 ft | 437 kts | 129° |
| 2026-05-06 14:25 | 37.62973 | 23.15497 | 22255 ft | 440 kts | 107° |
| 2026-05-06 14:25 | 37.62374 | 23.19329 | 21704 ft | 451 kts | 90° |
| 2026-05-06 14:25 | 37.62311 | 23.23219 | 21151 ft | 443 kts | 86° |
| 2026-05-06 14:26 | 37.62366 | 23.27087 | 20180 ft | 442 kts | 85° |
| 2026-05-06 14:26 | 37.62463 | 23.30951 | 19383 ft | 438 kts | 85° |
| 2026-05-06 14:26 | 37.62572 | 23.34771 | 18768 ft | 431 kts | 85° |
| 2026-05-06 14:26 | 37.62684 | 23.38501 | 18385 ft | 419 kts | 85° |
| 2026-05-06 14:27 | 37.62794 | 23.42117 | 18121 ft | 408 kts | 85° |
| 2026-05-06 14:27 | 37.62912 | 23.45764 | 17887 ft | 424 kts | 85° |
| 2026-05-06 14:27 | 37.63041 | 23.49517 | 17629 ft | 429 kts | 84° |
| 2026-05-06 14:27 | 37.63564 | 23.53158 | 17327 ft | 417 kts | 66° |
| 2026-05-06 14:28 | 37.64821 | 23.56408 | 17098 ft | 410 kts | 57° |
| 2026-05-06 14:28 | 37.66247 | 23.59471 | 16644 ft | 400 kts | 56° |
| 2026-05-06 14:28 | 37.67693 | 23.62452 | 15932 ft | 396 kts | 55° |
| 2026-05-06 14:28 | 37.69129 | 23.65361 | 15131 ft | 394 kts | 55° |
| 2026-05-06 14:29 | 37.70586 | 23.68279 | 14365 ft | 391 kts | 55° |
| 2026-05-06 14:29 | 37.72041 | 23.71166 | 13648 ft | 386 kts | 55° |
| 2026-05-06 14:29 | 37.73482 | 23.74004 | 12920 ft | 381 kts | 55° |
| 2026-05-06 14:29 | 37.74909 | 23.76793 | 12181 ft | 377 kts | 55° |
| 2026-05-06 14:30 | 37.76333 | 23.79556 | 11504 ft | 371 kts | 55° |
| 2026-05-06 14:30 | 37.77726 | 23.82244 | 11188 ft | 358 kts | 55° |
| 2026-05-06 14:30 | 37.79061 | 23.84811 | 11105 ft | 343 kts | 55° |
| 2026-05-06 14:30 | 37.80364 | 23.87313 | 10681 ft | 340 kts | 55° |
| 2026-05-06 14:31 | 37.81642 | 23.89762 | 10451 ft | 327 kts | 54° |
| 2026-05-06 14:31 | 37.82871 | 23.92115 | 10298 ft | 313 kts | 55° |
| 2026-05-06 14:31 | 37.84050 | 23.94367 | 10162 ft | 300 kts | 55° |
| 2026-05-06 14:31 | 37.85178 | 23.96526 | 10048 ft | 288 kts | 55° |
| 2026-05-06 14:32 | 37.86262 | 23.98609 | 9663 ft | 284 kts | 54° |
| 2026-05-06 14:32 | 37.87295 | 24.00589 | 9395 ft | 276 kts | 54° |
| 2026-05-06 14:32 | 37.88333 | 24.02584 | 9123 ft | 270 kts | 54° |
| 2026-05-06 14:32 | 37.89351 | 24.04545 | 8908 ft | 262 kts | 54° |
| 2026-05-06 14:33 | 37.90596 | 24.06130 | 8849 ft | 250 kts | 34° |
| 2026-05-06 14:33 | 37.92011 | 24.07459 | 8561 ft | 260 kts | 35° |
| 2026-05-06 14:33 | 37.93498 | 24.08857 | 8130 ft | 271 kts | 35° |
| 2026-05-06 14:33 | 37.95027 | 24.10292 | 7684 ft | 273 kts | 35° |
| 2026-05-06 14:34 | 37.96541 | 24.11713 | 7244 ft | 274 kts | 35° |
| 2026-05-06 14:34 | 37.98076 | 24.13151 | 6809 ft | 275 kts | 35° |
| 2026-05-06 14:34 | 37.99609 | 24.14586 | 6365 ft | 272 kts | 35° |
| 2026-05-06 14:34 | 38.01128 | 24.16007 | 5895 ft | 270 kts | 34° |
| 2026-05-06 14:35 | 38.02635 | 24.17419 | 5450 ft | 268 kts | 35° |
| 2026-05-06 14:35 | 38.04144 | 24.18797 | 5001 ft | 266 kts | 34° |
| 2026-05-06 14:35 | 38.05642 | 24.20162 | 4558 ft | 264 kts | 35° |
| 2026-05-06 14:35 | 38.07255 | 24.21200 | 4108 ft | 258 kts | 6° |
| 2026-05-06 14:36 | 38.08927 | 24.20866 | 4041 ft | 236 kts | 329° |
| 2026-05-06 14:36 | 38.09947 | 24.19430 | 3995 ft | 212 kts | 288° |
| 2026-05-06 14:36 | 38.09920 | 24.17706 | 3984 ft | 190 kts | 247° |
| 2026-05-06 14:36 | 38.09347 | 24.16215 | 3991 ft | 188 kts | 245° |
| 2026-05-06 14:37 | 38.08779 | 24.14732 | 3990 ft | 186 kts | 245° |
| 2026-05-06 14:37 | 38.08214 | 24.13265 | 3987 ft | 185 kts | 245° |
| 2026-05-06 14:37 | 38.07656 | 24.11810 | 3998 ft | 185 kts | 245° |
| 2026-05-06 14:37 | 38.07089 | 24.10332 | 3987 ft | 187 kts | 245° |
| 2026-05-06 14:38 | 38.06507 | 24.08799 | 3659 ft | 196 kts | 245° |
| 2026-05-06 14:38 | 38.05809 | 24.07323 | 3258 ft | 195 kts | 226° |
| 2026-05-06 14:38 | 38.04771 | 24.06224 | 2922 ft | 193 kts | 218° |
| 2026-05-06 14:38 | 38.03717 | 24.05181 | 2543 ft | 191 kts | 217° |
| 2026-05-06 14:39 | 38.02654 | 24.04156 | 2171 ft | 192 kts | 216° |
| 2026-05-06 14:39 | 38.01597 | 24.03149 | 1931 ft | 188 kts | 215° |
| 2026-05-06 14:39 | 38.00582 | 24.02180 | 1680 ft | 174 kts | 214° |
| 2026-05-06 14:39 | 37.99670 | 24.01306 | 1453 ft | 156 kts | 215° |
| 2026-05-06 14:40 | 37.98822 | 24.00502 | 1250 ft | 150 kts | 214° |
| 2026-05-06 14:40 | 37.98017 | 23.99737 | 1038 ft | 145 kts | 215° |
| 2026-05-06 14:40 | 37.97229 | 23.98943 | 819 ft | 144 kts | 216° |
| 2026-05-06 14:40 | 37.96430 | 23.98206 | 601 ft | 138 kts | 218° |
| 2026-05-06 14:41 | 37.95683 | 23.97502 | 424 ft | 137 kts | 218° |
| 2026-05-06 14:41 | 37.94924 | 23.96772 | 310 ft | 134 kts | 217° |
| 2026-05-06 14:41 | 37.94315 | 23.96190 | 289 ft | 79 kts | 217° |
| 2026-05-06 14:41 | 37.93961 | 23.95850 | 279 ft | 55 kts | 222° |
| 2026-05-06 14:42 | 37.93776 | 23.95467 | 294 ft | 46 kts | 246° |
| 2026-05-06 14:42 | 37.93660 | 23.95213 | 300 ft | 28 kts | 297° |
| 2026-05-06 14:42 | 37.93781 | 23.95241 | 299 ft | 24 kts | 39° |
| 2026-05-06 14:42 | 37.93917 | 23.95295 | 301 ft | 17 kts | 334° |
| 2026-05-06 14:43 | 37.93983 | 23.95197 | 300 ft | 15 kts | 306° |
| 2026-05-06 14:43 | 37.94061 | 23.95136 | 302 ft | 13 kts | 29° |
| 2026-05-06 14:43 | 37.94088 | 23.95161 | 300 ft | 0 kts | 36° |